sensor_id;sensor_type;location;lat;lon;timestamp;temperature;humidity
31759;DHT22;36334;51.366;0.020;2022-07-10T00:00:27;17.80;97.30
31759;DHT22;36334;51.366;0.020;2022-07-10T00:03:14;17.70;97.40
31759;DHT22;36334;51.366;0.020;2022-07-10T00:06:00;17.60;97.50
31759;DHT22;36334;51.366;0.020;2022-07-10T00:08:46;17.60;97.70
31759;DHT22;36334;51.366;0.020;2022-07-10T00:11:33;17.60;97.80
31759;DHT22;36334;51.366;0.020;2022-07-10T00:14:20;17.60;98.00
31759;DHT22;36334;51.366;0.020;2022-07-10T00:17:06;17.50;98.00
31759;DHT22;36334;51.366;0.020;2022-07-10T00:19:52;17.50;98.10
31759;DHT22;36334;51.366;0.020;2022-07-10T00:22:38;17.50;98.20
31759;DHT22;36334;51.366;0.020;2022-07-10T00:25:24;17.50;98.20
31759;DHT22;36334;51.366;0.020;2022-07-10T00:28:10;17.50;98.30
31759;DHT22;36334;51.366;0.020;2022-07-10T00:30:57;17.40;98.30
31759;DHT22;36334;51.366;0.020;2022-07-10T00:33:43;17.40;98.40
31759;DHT22;36334;51.366;0.020;2022-07-10T00:36:29;17.30;98.40
31759;DHT22;36334;51.366;0.020;2022-07-10T00:39:15;17.30;98.50
31759;DHT22;36334;51.366;0.020;2022-07-10T00:42:12;17.30;98.60
31759;DHT22;36334;51.366;0.020;2022-07-10T00:44:59;17.30;98.70
31759;DHT22;36334;51.366;0.020;2022-07-10T00:47:45;17.20;98.70
31759;DHT22;36334;51.366;0.020;2022-07-10T00:50:32;17.20;98.80
31759;DHT22;36334;51.366;0.020;2022-07-10T00:53:19;17.10;98.90
31759;DHT22;36334;51.366;0.020;2022-07-10T00:56:06;17.10;98.90
31759;DHT22;36334;51.366;0.020;2022-07-10T00:58:53;17.10;99.10
31759;DHT22;36334;51.366;0.020;2022-07-10T01:01:39;17.00;99.20
31759;DHT22;36334;51.366;0.020;2022-07-10T01:04:26;17.00;99.30
31759;DHT22;36334;51.366;0.020;2022-07-10T01:07:12;16.90;99.30
31759;DHT22;36334;51.366;0.020;2022-07-10T01:10:01;16.90;99.40
31759;DHT22;36334;51.366;0.020;2022-07-10T01:12:48;16.80;99.50
31759;DHT22;36334;51.366;0.020;2022-07-10T01:15:34;16.80;99.60
31759;DHT22;36334;51.366;0.020;2022-07-10T01:18:21;16.80;99.70
31759;DHT22;36334;51.366;0.020;2022-07-10T01:21:29;16.70;99.70
31759;DHT22;36334;51.366;0.020;2022-07-10T01:24:15;16.70;99.90
31759;DHT22;36334;51.366;0.020;2022-07-10T01:27:02;16.70;99.90
31759;DHT22;36334;51.366;0.020;2022-07-10T01:29:48;16.60;99.90
31759;DHT22;36334;51.366;0.020;2022-07-10T01:32:39;16.60;99.90
31759;DHT22;36334;51.366;0.020;2022-07-10T01:35:25;16.50;99.90
31759;DHT22;36334;51.366;0.020;2022-07-10T01:38:11;16.50;99.90
31759;DHT22;36334;51.366;0.020;2022-07-10T01:40:57;16.50;99.90
31759;DHT22;36334;51.366;0.020;2022-07-10T01:43:44;16.50;99.90
31759;DHT22;36334;51.366;0.020;2022-07-10T01:46:30;16.40;99.90
31759;DHT22;36334;51.366;0.020;2022-07-10T01:49:17;16.40;99.90
31759;DHT22;36334;51.366;0.020;2022-07-10T01:52:04;16.40;99.90
31759;DHT22;36334;51.366;0.020;2022-07-10T01:54:51;16.30;99.90
31759;DHT22;36334;51.366;0.020;2022-07-10T01:57:37;16.30;99.90
31759;DHT22;36334;51.366;0.020;2022-07-10T02:00:23;16.30;99.90
31759;DHT22;36334;51.366;0.020;2022-07-10T02:03:10;16.20;99.90
31759;DHT22;36334;51.366;0.020;2022-07-10T02:06:15;16.20;99.90
31759;DHT22;36334;51.366;0.020;2022-07-10T02:09:01;16.20;99.90
31759;DHT22;36334;51.366;0.020;2022-07-10T02:11:47;16.20;99.90
31759;DHT22;36334;51.366;0.020;2022-07-10T02:14:34;16.10;99.90
31759;DHT22;36334;51.366;0.020;2022-07-10T02:17:20;16.10;99.90
31759;DHT22;36334;51.366;0.020;2022-07-10T02:20:06;16.10;99.90
31759;DHT22;36334;51.366;0.020;2022-07-10T02:22:52;16.00;99.90
31759;DHT22;36334;51.366;0.020;2022-07-10T02:25:39;16.00;99.90
31759;DHT22;36334;51.366;0.020;2022-07-10T02:28:25;16.00;99.90
31759;DHT22;36334;51.366;0.020;2022-07-10T02:31:11;16.00;99.90
31759;DHT22;36334;51.366;0.020;2022-07-10T02:33:57;15.90;99.90
31759;DHT22;36334;51.366;0.020;2022-07-10T02:36:43;15.90;99.90
31759;DHT22;36334;51.366;0.020;2022-07-10T02:39:30;15.90;99.90
31759;DHT22;36334;51.366;0.020;2022-07-10T02:42:16;15.90;99.90
31759;DHT22;36334;51.366;0.020;2022-07-10T02:45:02;15.90;99.90
31759;DHT22;36334;51.366;0.020;2022-07-10T02:47:48;15.80;99.90
31759;DHT22;36334;51.366;0.020;2022-07-10T02:50:34;15.80;99.90
31759;DHT22;36334;51.366;0.020;2022-07-10T02:53:20;15.70;99.90
31759;DHT22;36334;51.366;0.020;2022-07-10T02:56:07;15.70;99.90
31759;DHT22;36334;51.366;0.020;2022-07-10T02:58:54;15.70;99.90
31759;DHT22;36334;51.366;0.020;2022-07-10T03:01:40;15.70;99.90
31759;DHT22;36334;51.366;0.020;2022-07-10T03:04:27;15.70;99.90
31759;DHT22;36334;51.366;0.020;2022-07-10T03:07:13;15.60;99.90
31759;DHT22;36334;51.366;0.020;2022-07-10T03:10:00;15.60;99.90
31759;DHT22;36334;51.366;0.020;2022-07-10T03:12:46;15.60;99.90
31759;DHT22;36334;51.366;0.020;2022-07-10T03:15:33;15.60;99.90
31759;DHT22;36334;51.366;0.020;2022-07-10T03:18:19;15.50;99.90
31759;DHT22;36334;51.366;0.020;2022-07-10T03:21:06;15.50;99.90
31759;DHT22;36334;51.366;0.020;2022-07-10T03:23:52;15.40;99.90
31759;DHT22;36334;51.366;0.020;2022-07-10T03:26:39;15.40;99.90
31759;DHT22;36334;51.366;0.020;2022-07-10T03:29:27;15.40;99.90
31759;DHT22;36334;51.366;0.020;2022-07-10T03:32:14;15.30;99.90
31759;DHT22;36334;51.366;0.020;2022-07-10T03:35:00;15.30;99.90
31759;DHT22;36334;51.366;0.020;2022-07-10T03:37:46;15.20;99.90
31759;DHT22;36334;51.366;0.020;2022-07-10T03:40:33;15.20;99.90
31759;DHT22;36334;51.366;0.020;2022-07-10T03:43:19;15.20;99.90
31759;DHT22;36334;51.366;0.020;2022-07-10T03:46:05;15.10;99.90
31759;DHT22;36334;51.366;0.020;2022-07-10T03:48:52;15.00;99.90
31759;DHT22;36334;51.366;0.020;2022-07-10T03:51:38;14.90;99.90
31759;DHT22;36334;51.366;0.020;2022-07-10T03:54:24;14.70;99.90
31759;DHT22;36334;51.366;0.020;2022-07-10T03:57:10;14.70;99.90
31759;DHT22;36334;51.366;0.020;2022-07-10T04:00:14;14.60;99.90
31759;DHT22;36334;51.366;0.020;2022-07-10T04:03:03;14.50;99.90
31759;DHT22;36334;51.366;0.020;2022-07-10T04:05:49;14.50;99.90
31759;DHT22;36334;51.366;0.020;2022-07-10T04:08:35;14.50;99.90
31759;DHT22;36334;51.366;0.020;2022-07-10T04:11:23;14.50;99.90
31759;DHT22;36334;51.366;0.020;2022-07-10T04:14:09;14.40;99.90
31759;DHT22;36334;51.366;0.020;2022-07-10T04:16:55;14.40;99.90
31759;DHT22;36334;51.366;0.020;2022-07-10T04:19:41;14.40;99.90
31759;DHT22;36334;51.366;0.020;2022-07-10T04:22:27;14.40;99.90
31759;DHT22;36334;51.366;0.020;2022-07-10T04:25:13;14.40;99.90
31759;DHT22;36334;51.366;0.020;2022-07-10T04:27:59;14.30;99.90
31759;DHT22;36334;51.366;0.020;2022-07-10T04:30:45;14.30;99.90
31759;DHT22;36334;51.366;0.020;2022-07-10T04:33:31;14.30;99.90
31759;DHT22;36334;51.366;0.020;2022-07-10T04:36:17;14.30;99.90
31759;DHT22;36334;51.366;0.020;2022-07-10T04:39:04;14.40;99.90
31759;DHT22;36334;51.366;0.020;2022-07-10T04:41:50;14.40;99.90
31759;DHT22;36334;51.366;0.020;2022-07-10T04:44:36;14.40;99.90
31759;DHT22;36334;51.366;0.020;2022-07-10T04:47:23;14.40;99.90
31759;DHT22;36334;51.366;0.020;2022-07-10T04:50:09;14.50;99.90
31759;DHT22;36334;51.366;0.020;2022-07-10T04:52:55;14.50;99.90
31759;DHT22;36334;51.366;0.020;2022-07-10T04:55:41;14.60;99.90
31759;DHT22;36334;51.366;0.020;2022-07-10T04:58:27;14.60;99.90
31759;DHT22;36334;51.366;0.020;2022-07-10T05:01:14;14.60;99.90
31759;DHT22;36334;51.366;0.020;2022-07-10T05:04:01;14.80;99.90
31759;DHT22;36334;51.366;0.020;2022-07-10T05:06:47;14.80;99.90
31759;DHT22;36334;51.366;0.020;2022-07-10T05:09:33;14.90;99.90
31759;DHT22;36334;51.366;0.020;2022-07-10T05:12:19;14.90;99.90
31759;DHT22;36334;51.366;0.020;2022-07-10T05:15:06;15.00;99.90
31759;DHT22;36334;51.366;0.020;2022-07-10T05:17:52;15.00;99.90
31759;DHT22;36334;51.366;0.020;2022-07-10T05:20:39;15.10;99.90
31759;DHT22;36334;51.366;0.020;2022-07-10T05:23:28;15.30;99.90
31759;DHT22;36334;51.366;0.020;2022-07-10T05:26:14;15.30;99.90
31759;DHT22;36334;51.366;0.020;2022-07-10T05:29:00;15.40;99.90
31759;DHT22;36334;51.366;0.020;2022-07-10T05:31:46;15.50;99.90
31759;DHT22;36334;51.366;0.020;2022-07-10T05:34:33;15.60;99.90
31759;DHT22;36334;51.366;0.020;2022-07-10T05:37:18;15.70;99.90
31759;DHT22;36334;51.366;0.020;2022-07-10T05:40:05;15.80;99.90
31759;DHT22;36334;51.366;0.020;2022-07-10T05:42:52;15.80;99.90
31759;DHT22;36334;51.366;0.020;2022-07-10T05:45:38;15.90;99.90
31759;DHT22;36334;51.366;0.020;2022-07-10T05:48:30;16.00;99.90
31759;DHT22;36334;51.366;0.020;2022-07-10T05:51:16;16.20;99.90
31759;DHT22;36334;51.366;0.020;2022-07-10T05:54:22;16.20;99.90
31759;DHT22;36334;51.366;0.020;2022-07-10T05:57:08;16.40;99.90
31759;DHT22;36334;51.366;0.020;2022-07-10T05:59:54;16.50;99.90
31759;DHT22;36334;51.366;0.020;2022-07-10T06:02:41;16.60;99.90
31759;DHT22;36334;51.366;0.020;2022-07-10T06:05:27;16.70;99.90
31759;DHT22;36334;51.366;0.020;2022-07-10T06:08:13;16.80;99.90
31759;DHT22;36334;51.366;0.020;2022-07-10T06:10:59;16.90;99.90
31759;DHT22;36334;51.366;0.020;2022-07-10T06:13:45;17.10;99.90
31759;DHT22;36334;51.366;0.020;2022-07-10T06:16:31;17.20;99.70
31759;DHT22;36334;51.366;0.020;2022-07-10T06:19:17;17.30;99.40
31759;DHT22;36334;51.366;0.020;2022-07-10T06:22:04;17.30;99.00
31759;DHT22;36334;51.366;0.020;2022-07-10T06:25:09;17.40;98.70
31759;DHT22;36334;51.366;0.020;2022-07-10T06:27:55;17.50;98.40
31759;DHT22;36334;51.366;0.020;2022-07-10T06:30:41;17.60;98.20
31759;DHT22;36334;51.366;0.020;2022-07-10T06:33:27;17.70;97.90
31759;DHT22;36334;51.366;0.020;2022-07-10T06:36:13;17.80;97.70
31759;DHT22;36334;51.366;0.020;2022-07-10T06:39:00;17.90;97.40
31759;DHT22;36334;51.366;0.020;2022-07-10T06:41:46;17.90;97.10
31759;DHT22;36334;51.366;0.020;2022-07-10T06:44:32;18.00;96.90
31759;DHT22;36334;51.366;0.020;2022-07-10T06:47:19;18.10;96.70
31759;DHT22;36334;51.366;0.020;2022-07-10T06:50:28;18.20;96.40
31759;DHT22;36334;51.366;0.020;2022-07-10T06:53:20;18.30;96.10
31759;DHT22;36334;51.366;0.020;2022-07-10T06:56:10;18.40;95.70
31759;DHT22;36334;51.366;0.020;2022-07-10T06:58:56;18.50;95.40
31759;DHT22;36334;51.366;0.020;2022-07-10T07:01:42;18.60;95.10
31759;DHT22;36334;51.366;0.020;2022-07-10T07:04:28;18.60;94.90
31759;DHT22;36334;51.366;0.020;2022-07-10T07:07:14;18.70;94.80
31759;DHT22;36334;51.366;0.020;2022-07-10T07:10:09;18.70;94.60
31759;DHT22;36334;51.366;0.020;2022-07-10T07:12:55;18.80;94.50
31759;DHT22;36334;51.366;0.020;2022-07-10T07:15:41;18.90;94.40
31759;DHT22;36334;51.366;0.020;2022-07-10T07:18:38;19.00;94.30
31759;DHT22;36334;51.366;0.020;2022-07-10T07:21:33;19.00;94.30
31759;DHT22;36334;51.366;0.020;2022-07-10T07:24:51;19.10;94.30
31759;DHT22;36334;51.366;0.020;2022-07-10T07:27:38;19.20;94.30
31759;DHT22;36334;51.366;0.020;2022-07-10T07:30:25;19.30;94.30
31759;DHT22;36334;51.366;0.020;2022-07-10T07:33:11;19.40;94.30
31759;DHT22;36334;51.366;0.020;2022-07-10T07:35:57;19.50;94.30
31759;DHT22;36334;51.366;0.020;2022-07-10T07:38:43;19.50;94.20
31759;DHT22;36334;51.366;0.020;2022-07-10T07:41:29;19.50;94.20
31759;DHT22;36334;51.366;0.020;2022-07-10T07:44:15;19.60;94.30
31759;DHT22;36334;51.366;0.020;2022-07-10T07:47:03;19.70;94.30
31759;DHT22;36334;51.366;0.020;2022-07-10T07:49:49;19.80;94.20
31759;DHT22;36334;51.366;0.020;2022-07-10T07:52:35;19.90;94.30
31759;DHT22;36334;51.366;0.020;2022-07-10T07:55:22;19.90;94.20
31759;DHT22;36334;51.366;0.020;2022-07-10T07:58:08;19.90;94.10
31759;DHT22;36334;51.366;0.020;2022-07-10T08:00:54;20.00;94.20
31759;DHT22;36334;51.366;0.020;2022-07-10T08:03:42;20.00;94.20
31759;DHT22;36334;51.366;0.020;2022-07-10T08:06:48;20.10;94.10
31759;DHT22;36334;51.366;0.020;2022-07-10T08:09:38;20.10;94.10
31759;DHT22;36334;51.366;0.020;2022-07-10T08:12:24;20.10;94.20
31759;DHT22;36334;51.366;0.020;2022-07-10T08:15:11;20.20;94.20
31759;DHT22;36334;51.366;0.020;2022-07-10T08:17:58;20.20;94.10
31759;DHT22;36334;51.366;0.020;2022-07-10T08:20:45;20.30;94.10
31759;DHT22;36334;51.366;0.020;2022-07-10T08:23:31;20.40;94.10
31759;DHT22;36334;51.366;0.020;2022-07-10T08:26:18;20.40;94.00
31759;DHT22;36334;51.366;0.020;2022-07-10T08:29:04;20.50;94.00
31759;DHT22;36334;51.366;0.020;2022-07-10T08:31:50;20.60;93.90
31759;DHT22;36334;51.366;0.020;2022-07-10T08:34:37;20.70;93.70
31759;DHT22;36334;51.366;0.020;2022-07-10T08:37:22;20.70;93.60
31759;DHT22;36334;51.366;0.020;2022-07-10T08:40:11;20.70;93.60
31759;DHT22;36334;51.366;0.020;2022-07-10T08:42:58;20.70;93.50
31759;DHT22;36334;51.366;0.020;2022-07-10T08:45:46;20.80;93.40
31759;DHT22;36334;51.366;0.020;2022-07-10T08:48:36;20.80;93.50
31759;DHT22;36334;51.366;0.020;2022-07-10T08:54:41;20.90;93.40
31759;DHT22;36334;51.366;0.020;2022-07-10T08:57:28;21.00;93.40
31759;DHT22;36334;51.366;0.020;2022-07-10T09:00:17;21.00;93.30
31759;DHT22;36334;51.366;0.020;2022-07-10T09:03:03;21.10;93.20
31759;DHT22;36334;51.366;0.020;2022-07-10T09:05:49;21.20;93.10
31759;DHT22;36334;51.366;0.020;2022-07-10T09:08:37;21.20;93.00
31759;DHT22;36334;51.366;0.020;2022-07-10T09:11:24;21.30;92.90
31759;DHT22;36334;51.366;0.020;2022-07-10T09:14:16;21.30;92.90
31759;DHT22;36334;51.366;0.020;2022-07-10T09:17:18;21.40;92.90
31759;DHT22;36334;51.366;0.020;2022-07-10T09:20:05;21.50;92.80
31759;DHT22;36334;51.366;0.020;2022-07-10T09:22:51;21.50;93.00
31759;DHT22;36334;51.366;0.020;2022-07-10T09:25:40;21.60;92.60
31759;DHT22;36334;51.366;0.020;2022-07-10T09:28:26;21.70;92.50
31759;DHT22;36334;51.366;0.020;2022-07-10T09:31:12;21.80;92.40
31759;DHT22;36334;51.366;0.020;2022-07-10T09:33:59;21.80;92.20
31759;DHT22;36334;51.366;0.020;2022-07-10T09:36:45;21.80;92.00
31759;DHT22;36334;51.366;0.020;2022-07-10T09:39:31;21.90;92.00
31759;DHT22;36334;51.366;0.020;2022-07-10T09:42:45;22.00;92.00
31759;DHT22;36334;51.366;0.020;2022-07-10T09:45:33;22.10;91.80
31759;DHT22;36334;51.366;0.020;2022-07-10T09:48:23;22.20;91.70
31759;DHT22;36334;51.366;0.020;2022-07-10T09:51:11;22.30;91.50
31759;DHT22;36334;51.366;0.020;2022-07-10T09:54:00;22.40;91.50
31759;DHT22;36334;51.366;0.020;2022-07-10T09:56:48;22.40;91.40
31759;DHT22;36334;51.366;0.020;2022-07-10T09:59:36;22.50;91.30
31759;DHT22;36334;51.366;0.020;2022-07-10T10:02:24;22.50;91.10
31759;DHT22;36334;51.366;0.020;2022-07-10T10:05:10;22.60;90.90
31759;DHT22;36334;51.366;0.020;2022-07-10T10:11:19;22.60;90.70
31759;DHT22;36334;51.366;0.020;2022-07-10T10:14:08;22.60;90.60
31759;DHT22;36334;51.366;0.020;2022-07-10T10:16:56;22.70;90.70
31759;DHT22;36334;51.366;0.020;2022-07-10T10:19:42;22.80;90.60
31759;DHT22;36334;51.366;0.020;2022-07-10T10:22:48;22.80;90.60
31759;DHT22;36334;51.366;0.020;2022-07-10T10:25:35;22.90;90.40
31759;DHT22;36334;51.366;0.020;2022-07-10T10:28:24;23.00;90.30
31759;DHT22;36334;51.366;0.020;2022-07-10T10:31:10;23.10;90.20
31759;DHT22;36334;51.366;0.020;2022-07-10T10:33:57;23.10;90.30
31759;DHT22;36334;51.366;0.020;2022-07-10T10:36:47;23.20;90.20
31759;DHT22;36334;51.366;0.020;2022-07-10T10:39:52;23.30;90.20
31759;DHT22;36334;51.366;0.020;2022-07-10T10:42:44;23.40;90.10
31759;DHT22;36334;51.366;0.020;2022-07-10T10:45:33;23.50;90.00
31759;DHT22;36334;51.366;0.020;2022-07-10T10:48:21;23.60;89.70
31759;DHT22;36334;51.366;0.020;2022-07-10T10:51:23;23.70;89.40
31759;DHT22;36334;51.366;0.020;2022-07-10T10:58:13;23.90;88.60
31759;DHT22;36334;51.366;0.020;2022-07-10T11:04:15;24.30;87.60
31759;DHT22;36334;51.366;0.020;2022-07-10T11:07:02;24.40;87.00
31759;DHT22;36334;51.366;0.020;2022-07-10T11:09:49;24.40;86.60
31759;DHT22;36334;51.366;0.020;2022-07-10T11:13:17;24.40;86.00
31759;DHT22;36334;51.366;0.020;2022-07-10T11:16:12;24.40;85.70
31759;DHT22;36334;51.366;0.020;2022-07-10T11:19:00;24.40;85.90
31759;DHT22;36334;51.366;0.020;2022-07-10T11:21:47;24.50;85.80
31759;DHT22;36334;51.366;0.020;2022-07-10T11:27:59;24.70;85.40
31759;DHT22;36334;51.366;0.020;2022-07-10T11:30:54;24.80;85.10
31759;DHT22;36334;51.366;0.020;2022-07-10T11:33:42;24.80;84.50
31759;DHT22;36334;51.366;0.020;2022-07-10T11:36:30;24.90;84.10
31759;DHT22;36334;51.366;0.020;2022-07-10T11:39:19;24.80;83.30
31759;DHT22;36334;51.366;0.020;2022-07-10T11:42:06;24.80;83.10
31759;DHT22;36334;51.366;0.020;2022-07-10T11:44:52;24.70;83.20
31759;DHT22;36334;51.366;0.020;2022-07-10T11:47:38;24.80;83.30
31759;DHT22;36334;51.366;0.020;2022-07-10T11:50:26;24.90;83.20
31759;DHT22;36334;51.366;0.020;2022-07-10T11:53:13;25.00;83.00
31759;DHT22;36334;51.366;0.020;2022-07-10T11:55:59;25.20;83.00
31759;DHT22;36334;51.366;0.020;2022-07-10T11:59:05;25.30;82.60
31759;DHT22;36334;51.366;0.020;2022-07-10T12:01:54;25.50;82.50
31759;DHT22;36334;51.366;0.020;2022-07-10T12:04:40;25.70;82.40
31759;DHT22;36334;51.366;0.020;2022-07-10T12:07:27;25.90;81.30
31759;DHT22;36334;51.366;0.020;2022-07-10T12:10:13;25.90;80.30
31759;DHT22;36334;51.366;0.020;2022-07-10T12:13:05;26.00;79.50
31759;DHT22;36334;51.366;0.020;2022-07-10T12:15:51;26.00;79.30
31759;DHT22;36334;51.366;0.020;2022-07-10T12:18:38;26.20;79.00
31759;DHT22;36334;51.366;0.020;2022-07-10T12:21:27;26.20;78.60
31759;DHT22;36334;51.366;0.020;2022-07-10T12:24:16;26.20;77.80
31759;DHT22;36334;51.366;0.020;2022-07-10T12:27:03;26.20;77.40
31759;DHT22;36334;51.366;0.020;2022-07-10T12:30:00;26.10;77.50
31759;DHT22;36334;51.366;0.020;2022-07-10T12:32:50;26.20;77.40
31759;DHT22;36334;51.366;0.020;2022-07-10T12:35:56;26.30;77.40
31759;DHT22;36334;51.366;0.020;2022-07-10T12:38:42;26.50;77.00
31759;DHT22;36334;51.366;0.020;2022-07-10T12:42:01;26.70;76.70
31759;DHT22;36334;51.366;0.020;2022-07-10T12:44:48;26.80;76.20
31759;DHT22;36334;51.366;0.020;2022-07-10T12:47:46;26.90;76.20
31759;DHT22;36334;51.366;0.020;2022-07-10T12:50:33;27.00;75.70
31759;DHT22;36334;51.366;0.020;2022-07-10T12:53:19;27.10;75.70
31759;DHT22;36334;51.366;0.020;2022-07-10T12:56:06;27.30;75.60
31759;DHT22;36334;51.366;0.020;2022-07-10T12:58:53;27.40;75.10
31759;DHT22;36334;51.366;0.020;2022-07-10T13:01:43;27.50;74.80
31759;DHT22;36334;51.366;0.020;2022-07-10T13:04:30;27.60;74.60
31759;DHT22;36334;51.366;0.020;2022-07-10T13:07:18;27.80;75.00
31759;DHT22;36334;51.366;0.020;2022-07-10T13:10:07;28.00;74.80
31759;DHT22;36334;51.366;0.020;2022-07-10T13:12:53;28.20;74.20
31759;DHT22;36334;51.366;0.020;2022-07-10T13:15:40;28.40;73.50
31759;DHT22;36334;51.366;0.020;2022-07-10T13:18:36;28.50;73.40
31759;DHT22;36334;51.366;0.020;2022-07-10T13:21:22;28.70;73.20
31759;DHT22;36334;51.366;0.020;2022-07-10T13:24:08;28.90;72.40
31759;DHT22;36334;51.366;0.020;2022-07-10T13:26:54;28.90;71.60
31759;DHT22;36334;51.366;0.020;2022-07-10T13:29:44;28.90;71.40
31759;DHT22;36334;51.366;0.020;2022-07-10T13:32:30;28.90;71.10
31759;DHT22;36334;51.366;0.020;2022-07-10T13:35:16;28.90;70.60
31759;DHT22;36334;51.366;0.020;2022-07-10T13:38:03;28.70;70.50
31759;DHT22;36334;51.366;0.020;2022-07-10T13:40:50;28.60;70.80
31759;DHT22;36334;51.366;0.020;2022-07-10T13:43:35;28.60;71.00
31759;DHT22;36334;51.366;0.020;2022-07-10T13:46:22;28.70;71.00
31759;DHT22;36334;51.366;0.020;2022-07-10T13:49:08;29.00;71.10
31759;DHT22;36334;51.366;0.020;2022-07-10T13:51:55;29.30;70.50
31759;DHT22;36334;51.366;0.020;2022-07-10T13:54:41;29.60;69.90
31759;DHT22;36334;51.366;0.020;2022-07-10T13:57:27;29.80;69.80
31759;DHT22;36334;51.366;0.020;2022-07-10T14:00:13;30.00;69.30
31759;DHT22;36334;51.366;0.020;2022-07-10T14:02:59;30.20;68.20
31759;DHT22;36334;51.366;0.020;2022-07-10T14:05:47;30.30;68.20
31759;DHT22;36334;51.366;0.020;2022-07-10T14:08:33;30.30;67.30
31759;DHT22;36334;51.366;0.020;2022-07-10T14:11:20;30.40;67.20
31759;DHT22;36334;51.366;0.020;2022-07-10T14:14:06;30.40;67.00
31759;DHT22;36334;51.366;0.020;2022-07-10T14:16:52;30.60;66.80
31759;DHT22;36334;51.366;0.020;2022-07-10T14:19:39;30.60;66.20
31759;DHT22;36334;51.366;0.020;2022-07-10T14:22:27;30.60;65.90
31759;DHT22;36334;51.366;0.020;2022-07-10T14:25:14;30.50;65.40
31759;DHT22;36334;51.366;0.020;2022-07-10T14:28:00;30.40;65.40
31759;DHT22;36334;51.366;0.020;2022-07-10T14:30:46;30.20;65.60
31759;DHT22;36334;51.366;0.020;2022-07-10T14:33:36;30.20;65.80
31759;DHT22;36334;51.366;0.020;2022-07-10T14:36:22;30.30;66.00
31759;DHT22;36334;51.366;0.020;2022-07-10T14:39:12;30.60;65.50
31759;DHT22;36334;51.366;0.020;2022-07-10T14:41:58;30.80;65.00
31759;DHT22;36334;51.366;0.020;2022-07-10T14:44:44;31.00;64.60
31759;DHT22;36334;51.366;0.020;2022-07-10T14:47:30;31.10;64.70
31759;DHT22;36334;51.366;0.020;2022-07-10T14:50:18;31.20;64.70
31759;DHT22;36334;51.366;0.020;2022-07-10T14:53:05;31.40;64.50
31759;DHT22;36334;51.366;0.020;2022-07-10T14:55:54;31.60;63.90
31759;DHT22;36334;51.366;0.020;2022-07-10T14:58:40;31.80;63.40
31759;DHT22;36334;51.366;0.020;2022-07-10T15:01:47;31.90;63.10
31759;DHT22;36334;51.366;0.020;2022-07-10T15:04:33;32.10;63.40
31759;DHT22;36334;51.366;0.020;2022-07-10T15:07:19;32.40;62.60
31759;DHT22;36334;51.366;0.020;2022-07-10T15:10:05;32.60;62.40
31759;DHT22;36334;51.366;0.020;2022-07-10T15:12:54;33.20;61.90
31759;DHT22;36334;51.366;0.020;2022-07-10T15:15:40;33.80;60.70
31759;DHT22;36334;51.366;0.020;2022-07-10T15:18:27;34.50;60.00
31759;DHT22;36334;51.366;0.020;2022-07-10T15:21:13;35.20;59.40
31759;DHT22;36334;51.366;0.020;2022-07-10T15:24:01;36.00;58.10
31759;DHT22;36334;51.366;0.020;2022-07-10T15:26:49;36.70;57.20
31759;DHT22;36334;51.366;0.020;2022-07-10T15:29:36;37.50;56.90
31759;DHT22;36334;51.366;0.020;2022-07-10T15:32:22;38.20;56.00
31759;DHT22;36334;51.366;0.020;2022-07-10T15:35:09;38.40;55.00
31759;DHT22;36334;51.366;0.020;2022-07-10T15:37:55;38.60;55.20
31759;DHT22;36334;51.366;0.020;2022-07-10T15:40:45;39.10;54.40
31759;DHT22;36334;51.366;0.020;2022-07-10T15:43:31;39.60;53.90
31759;DHT22;36334;51.366;0.020;2022-07-10T15:46:17;40.40;53.00
31759;DHT22;36334;51.366;0.020;2022-07-10T15:49:03;41.10;52.00
31759;DHT22;36334;51.366;0.020;2022-07-10T15:51:51;41.80;50.80
31759;DHT22;36334;51.366;0.020;2022-07-10T15:54:37;42.30;50.30
31759;DHT22;36334;51.366;0.020;2022-07-10T15:57:23;42.70;49.80
31759;DHT22;36334;51.366;0.020;2022-07-10T16:00:10;43.00;49.00
31759;DHT22;36334;51.366;0.020;2022-07-10T16:02:56;42.90;48.50
31759;DHT22;36334;51.366;0.020;2022-07-10T16:05:45;42.70;48.20
31759;DHT22;36334;51.366;0.020;2022-07-10T16:08:32;41.90;48.50
31759;DHT22;36334;51.366;0.020;2022-07-10T16:11:18;41.10;48.10
31759;DHT22;36334;51.366;0.020;2022-07-10T16:14:04;41.10;48.50
31759;DHT22;36334;51.366;0.020;2022-07-10T16:16:51;41.60;48.40
31759;DHT22;36334;51.366;0.020;2022-07-10T16:19:38;42.40;48.00
31759;DHT22;36334;51.366;0.020;2022-07-10T16:22:24;43.10;47.40
31759;DHT22;36334;51.366;0.020;2022-07-10T16:25:10;43.90;46.90
31759;DHT22;36334;51.366;0.020;2022-07-10T16:28:14;44.70;46.30
31759;DHT22;36334;51.366;0.020;2022-07-10T16:31:01;45.50;46.00
31759;DHT22;36334;51.366;0.020;2022-07-10T16:33:48;45.80;45.20
31759;DHT22;36334;51.366;0.020;2022-07-10T16:36:35;46.20;45.00
31759;DHT22;36334;51.366;0.020;2022-07-10T16:39:21;46.50;44.60
31759;DHT22;36334;51.366;0.020;2022-07-10T16:42:07;46.70;44.30
31759;DHT22;36334;51.366;0.020;2022-07-10T16:44:53;47.10;43.70
31759;DHT22;36334;51.366;0.020;2022-07-10T16:47:39;47.40;43.30
31759;DHT22;36334;51.366;0.020;2022-07-10T16:50:27;47.70;42.90
31759;DHT22;36334;51.366;0.020;2022-07-10T16:53:14;48.20;42.40
31759;DHT22;36334;51.366;0.020;2022-07-10T16:56:00;48.60;42.00
31759;DHT22;36334;51.366;0.020;2022-07-10T16:58:46;48.70;42.40
31759;DHT22;36334;51.366;0.020;2022-07-10T17:01:35;49.00;41.60
31759;DHT22;36334;51.366;0.020;2022-07-10T17:04:23;49.10;41.10
31759;DHT22;36334;51.366;0.020;2022-07-10T17:07:21;49.10;40.90
31759;DHT22;36334;51.366;0.020;2022-07-10T17:10:09;49.00;41.30
31759;DHT22;36334;51.366;0.020;2022-07-10T17:12:55;49.20;40.70
31759;DHT22;36334;51.366;0.020;2022-07-10T17:15:42;49.30;40.30
31759;DHT22;36334;51.366;0.020;2022-07-10T17:18:28;49.40;40.00
31759;DHT22;36334;51.366;0.020;2022-07-10T17:21:14;49.60;39.80
31759;DHT22;36334;51.366;0.020;2022-07-10T17:24:22;49.60;39.70
31759;DHT22;36334;51.366;0.020;2022-07-10T17:27:08;49.70;39.50
31759;DHT22;36334;51.366;0.020;2022-07-10T17:30:02;49.60;39.40
31759;DHT22;36334;51.366;0.020;2022-07-10T17:32:49;49.40;39.40
31759;DHT22;36334;51.366;0.020;2022-07-10T17:35:41;49.30;39.40
31759;DHT22;36334;51.366;0.020;2022-07-10T17:38:27;49.20;39.30
31759;DHT22;36334;51.366;0.020;2022-07-10T17:41:14;48.70;38.70
31759;DHT22;36334;51.366;0.020;2022-07-10T17:44:00;48.40;39.00
31759;DHT22;36334;51.366;0.020;2022-07-10T17:46:47;47.90;39.10
31759;DHT22;36334;51.366;0.020;2022-07-10T17:49:33;47.60;39.20
31759;DHT22;36334;51.366;0.020;2022-07-10T17:52:20;47.40;39.30
31759;DHT22;36334;51.366;0.020;2022-07-10T17:55:07;47.20;39.40
31759;DHT22;36334;51.366;0.020;2022-07-10T17:57:53;46.50;39.60